AirNav   Everest Fuels
 
 481 users online  

NH32 Bentley Heliport
Exeter, New Hampshire, USA

GOING TO EXETER?


FAA INFORMATION EFFECTIVE 26 MARCH 2020

Location

FAA Identifier: NH32
Lat/Long: 42-58-53.3180N 070-55-07.2010W
42-58.888633N 070-55.120017W
42.9814772,-70.9186669
(estimated)
Elevation: 66 ft. / 20 m (estimated)
Variation: 16W (1985)
From city: 1 mile NE of EXETER, NH
Time zone: UTC -4 (UTC -5 during Standard Time)
Zip code: 03833

Heliport Operations

Heliport use: Private use. Permission required prior to landing
Activation date: 07/1976
Control tower: no
ARTCC: BOSTON CENTER
FSS: BANGOR FLIGHT SERVICE STATION
Attendance: UNATNDD
Wind indicator: yes
Segmented circle: no

Heliport Communications

WX ASOS at DAW (18 nm N): 135.275 (603-332-7814)
WX ASOS at LWM (18 nm SW): PHONE 978-687-8017

Nearby radio navigation aids

VOR radial/distance  VOR name  Freq  Var
PSMr228/7.3PEASE VOR/DME116.5016W
LWMr043/16.4LAWRENCE VOR/DME112.5015W
MHTr086/20.9MANCHESTER VOR/DME114.4015W
ENEr224/29.8KENNEBUNK VOR/DME117.1017W
CONr131/32.1CONCORD VOR/DME112.9015W
BOSr021/37.6BOSTON VOR/DME112.7016W

 
NDB name  Hdg/Dist  Freq  Var  ID
ROLLINS211/14.926016WESG . ... --.

Heliport Services

Runway Information

Helipad H1

Dimensions: 60 x 60 ft. / 18 x 18 m
Surface: asphalt/concrete
Traffic pattern: leftleft

Heliport Ownership and Management from official FAA records

Ownership: Privately-owned
Owner: CPEX PHARMACEUTICALS INC
BENTLEY PARK, 2 HOLLAND WAY
EXETER, NH 03833
Phone 603-658-6100
Manager: JONATHAN LANCE AUGHEY
BENTLEY PARK, 2 HOLLAND WAY
EXETER, NH 03833
Phone 603-658-6100

Additional Remarks

FOR CD CTC BOSTON APCH AT 603-594-5551.

Instrument Procedures

There are no published instrument procedures at NH32.

Some nearby airports with instrument procedures:

KPSM - Portsmouth International Airport at Pease (7 nm NE)
3B4 - Littlebrook Air Park (12 nm NE)
KDAW - Skyhaven Airport (18 nm N)
KLWM - Lawrence Municipal Airport (18 nm SW)
KMHT - Manchester Airport (23 nm W)
 
Loc | Ops | Rwys | IFR | FBO | Links
Com | Nav | Svcs | Stats | Notes
Area around NH32 (Bentley Heliport)
 
Road maps at: MapQuest Bing Google
 
Aerial photo
No photo
 
Sectional chart

 
Airport distance calculator
Flying to Bentley Heliport? Find the distance to fly.

From to NH32

Sunrise and sunset
Times for 03-Apr-2020
 Local
(UTC-4)
 Zulu
(UTC)
Morning civil twilight05:5309:53
Sunrise06:2210:22
Sunset19:1223:12
Evening civil twilight19:4123:41

Current date and time
Zulu (UTC)  03-Apr-2020 11:37:01
Local (UTC-4)  03-Apr-2020 07:37:01
 
METAR
KPSM 
7nm NE 
031056Z 36014G19KT 2SM RA BR BKN010 OVC019 07/06 A2951 RMK AO2A SLP996 P0010 T00670056
KDAW 
18nm N 
031120Z AUTO 36014G25KT 4SM -RA BR SCT014 OVC020 07/05 A2955 RMK AO2 P0005 T00670050
KLWM 
18nm SW 
031112Z 36013KT 2 1/2SM RA BR SCT009 OVC014 07/06 A2954 RMK AO2 P0004 T00670056
TAF
KPSM 
7nm NE 
030912Z 0309/0406 34015G24KT 3SM RA BR SCT004 OVC008 FM031000 02017G30KT 2SM -SHRA BR OVC008 WS020/04050KT FM031600 03020G35KT P6SM OVC009 FM032100 03018G29KT P6SM OVC015
NOTAMs
Click for the latest NOTAMs
NOTAMs are issued by the DoD/FAA and will open in a separate window not controlled by AirNav.

 

 
 

Would you like to see your business listed on this page?

 If your business provides an interesting product or service to pilots, flight crews, aircraft, or users of the Bentley Heliport, you should consider listing it here.  To start the listing process, click on the button below
 
Add a business
 

Other Pages about Bentley Heliport

Update a link
 
Copyright © AirNav, LLC. All rights reserved. Privacy Policy  Contact